M I D A S
Marine Information and Data Acquisition System
Tripno 257 of the Zeeleeuw from 2001-12-07 06:15:00 to 2001-12-07 16:30:00
Back to CruiseResearch ActivitiesStationsMapUnderway DataData graphs

EquipmentUnitsComment
TimeDGPSUTC
LatitudeDGPSDM.mWGS84
LongitudeDGPSDM.mWGS84
HeadingGyrodeg 
SOGDGPSknotsSpeed over ground
COGDGPSdegCourse over ground
DepthEcho soundermeters200 kHz
Missing or incorrect values are displayed as -999
Navigation data collected by the RV Zeeleeuw from 2001-12-07 06:15:00 to 2001-12-07 16:30:00
Time Latitude Longitude Heading SOG COG Depth
2001-12-07 08:31:59 51°15.808 2°54.434 347.3 13.9 343.3 10.3
2001-12-07 08:33:00 51°16.038 2°54.351 355.5 13.9 350.8 10.9
2001-12-07 08:34:00 51°16.212 2°54.321 8.2 8 359.9 11.4
2001-12-07 08:34:59 51°16.262 2°54.318 16.3 1 342.8 11.6
2001-12-07 08:36:00 51°16.263 2°54.302 20.7 0.8 242.7 -999
2001-12-07 08:36:59 51°16.283 2°54.291 352.7 0.9 329.8 11.6
2001-12-07 08:37:59 51°16.287 2°54.282 347.5 0.5 315.4 11.6
2001-12-07 08:38:59 51°16.295 2°54.27 348.5 0.7 317 11.6
2001-12-07 08:39:59 51°16.306 2°54.257 354.2 0.8 325.5 11.6
2001-12-07 08:40:59 51°16.318 2°54.244 4.3 0.9 330.2 11.7
2001-12-07 08:41:59 51°16.332 2°54.235 16.3 0.9 336.7 11.7
2001-12-07 08:42:59 51°16.345 2°54.227 25 0.8 342.1 11.5
2001-12-07 08:43:59 51°16.357 2°54.221 32.5 0.7 343.2 9.6
2001-12-07 08:45:05 51°16.369 2°54.217 40.5 0.7 347.1 11.6
2001-12-07 08:46:04 51°16.379 2°54.213 47.2 0.6 347.5 11.6
2001-12-07 08:47:04 51°16.389 2°54.21 51.2 0.5 344.2 11.6
2001-12-07 08:48:05 51°16.397 2°54.207 52.2 0.5 347.6 11.4
2001-12-07 08:49:05 51°16.406 2°54.204 50.5 0.5 346.1 11.6
2001-12-07 08:50:05 51°16.415 2°54.201 49 0.6 347.1 11.6
2001-12-07 08:51:04 51°16.438 2°54.207 15.3 2.5 6.2 11.6
2001-12-07 08:52:05 51°16.497 2°54.138 310 6.9 307.8 11.6
2001-12-07 08:53:04 51°16.572 2°53.947 308.3 9.4 304.5 11.6
2001-12-07 08:54:04 51°16.665 2°53.741 311.7 9.6 307.9 11.6
2001-12-07 08:55:05 51°16.758 2°53.526 307.2 9.7 302.9 11.2
2001-12-07 08:56:05 51°16.854 2°53.318 309.2 9.7 305.4 10.3
2001-12-07 08:57:05 51°16.945 2°53.107 311.5 9.7 306.9 7.7
2001-12-07 08:58:05 51°17.045 2°52.906 311.5 9.8 308.4 8.8
2001-12-07 08:59:06 51°17.146 2°52.699 310.7 9.7 306.9 9.4
2001-12-07 09:00:05 51°17.252 2°52.509 318.5 9.9 312.8 9.6
2001-12-07 09:01:05 51°17.375 2°52.336 329.7 9.9 324.8 10.1
2001-12-07 09:02:05 51°17.504 2°52.175 322 9.8 318.1 10.2
2001-12-07 09:03:05 51°17.628 2°52.008 328.2 9.8 322.8 10.2
2001-12-07 09:04:05 51°17.759 2°51.854 327 9.7 322.1 10
2001-12-07 09:05:04 51°17.877 2°51.711 327.3 8.5 322.3 9.9
2001-12-07 09:06:05 51°17.989 2°51.58 333.3 8 326.9 10.5
2001-12-07 09:07:05 51°18.099 2°51.458 327.7 8.1 322.5 11.2
2001-12-07 09:08:04 51°18.2 2°51.321 322.7 8.1 317.6 11.8
2001-12-07 09:09:05 51°18.308 2°51.187 333.7 8.1 326.5 12.7
2001-12-07 09:10:05 51°18.418 2°51.079 330.7 7 325.3 13.3
2001-12-07 09:11:04 51°18.467 2°51.026 5 1.2 322.1 13.5
2001-12-07 09:12:04 51°18.498 2°51.035 56.5 2.6 36.8 13.4
2001-12-07 09:13:05 51°18.514 2°51.038 72.7 0.8 335.6 13.6
2001-12-07 09:14:05 51°18.513 2°51.083 119.3 1.1 106.1 13.6
2001-12-07 09:15:05 51°18.521 2°51.072 121.2 0.6 317.3 9.7
2001-12-07 09:16:04 51°18.529 2°51.062 109.2 0.6 319.6 13.7
2001-12-07 09:17:05 51°18.537 2°51.057 106.5 0.4 359.6 13.6
2001-12-07 09:18:05 51°18.54 2°51.062 120.3 0.2 78.9 13.6
2001-12-07 09:19:05 51°18.538 2°51.067 141.5 0.4 159.5 13.6
2001-12-07 09:20:04 51°18.528 2°51.069 152.5 0.8 181.1 13.5
2001-12-07 09:21:05 51°18.513 2°51.069 155 1 179.4 13.5
2001-12-07 09:22:05 51°18.496 2°51.071 152.3 1 177 13.4
2001-12-07 09:23:05 51°18.482 2°51.069 149.8 0.7 188.9 13.3
2001-12-07 09:24:04 51°18.474 2°51.063 151.3 0.5 210.4 13.3
2001-12-07 09:25:06 51°18.467 2°51.053 155.2 0.6 237 13.3
2001-12-07 09:26:05 51°18.467 2°51.036 161.3 0.8 284 13.2
2001-12-07 09:27:06 51°18.463 2°51.019 159.8 0.7 232.8 13.3
2001-12-07 09:28:05 51°18.456 2°51.006 152.5 0.6 226.4 13.3
2001-12-07 09:29:05 51°18.451 2°50.996 139.7 0.4 224.6 13.2
2001-12-07 09:30:05 51°18.447 2°50.989 125.8 0.3 226.1 13.2
2001-12-07 09:31:05 51°18.446 2°50.985 113 0.1 281.4 13.3
2001-12-07 09:32:05 51°18.447 2°50.983 107.7 0.2 356.8 13.3
2001-12-07 09:33:06 51°18.449 2°50.982 109 0.1 2.1 13.3
2001-12-07 09:34:05 51°18.45 2°50.983 113.3   268.6 13.2
2001-12-07 09:35:05 51°18.45 2°50.982 118.8 0.1 266.5 13.2
2001-12-07 09:36:05 51°18.448 2°50.98 124.2 0.1 235 13.3
2001-12-07 09:37:05 51°18.446 2°50.975 131 0.3 228.8 13.2
2001-12-07 09:38:04 51°18.442 2°50.971 138.3 0.5 174.1 13.2
2001-12-07 09:39:05 51°18.432 2°51.026 79 3.3 76.7 13
2001-12-07 09:40:04 51°18.505 2°51.054 341.8 6.8 336.4 13.2
2001-12-07 09:41:05 51°18.561 2°50.849 287.2 9.7 283.9 13.5
2001-12-07 09:42:05 51°18.595 2°50.581 288.3 10.5 284.1 13.7
2001-12-07 09:43:05 51°18.637 2°50.31 287 10.5 283.4 13.6
2001-12-07 09:44:05 51°18.678 2°50.039 288 10.5 283.5 12.6
2001-12-07 09:45:05 51°18.72 2°49.769 288.2 10.5 284.1 10.6
2001-12-07 09:46:05 51°18.763 2°49.498 287.8 10.5 284.3 9.8
2001-12-07 09:47:05 51°18.807 2°49.225 287.7 10.6 284.4 10.4
2001-12-07 09:48:05 51°18.85 2°48.954 288.2 10.6 284.5 10.7
2001-12-07 09:49:04 51°18.894 2°48.687 288 10.5 284.2 13
2001-12-07 09:50:04 51°18.937 2°48.418 287.7 10.5 284 14
2001-12-07 09:51:05 51°18.978 2°48.142 288.2 10.5 283.4 16
2001-12-07 09:52:04 51°19.015 2°47.874 288.2 10.5 282.7 17.5
2001-12-07 09:53:06 51°19.054 2°47.594 288 10.5 283.1 18.6
2001-12-07 09:54:05 51°19.093 2°47.327 287.7 10.5 282.9 19.6
2001-12-07 09:55:06 51°19.133 2°47.048 288 10.6 283.4 20.4
2001-12-07 09:56:05 51°19.175 2°46.779 287.8 10.6 284 20.5
2001-12-07 09:57:05 51°19.218 2°46.505 287.7 10.7 283.9 20.5
2001-12-07 09:58:05 51°19.263 2°46.23 288 10.7 284.2 19.6
2001-12-07 09:59:05 51°19.307 2°45.955 288 10.7 284.7 17.1
2001-12-07 10:00:06 51°19.353 2°45.676 287.2 10.6 284 14
2001-12-07 10:01:05 51°19.396 2°45.407 287.8 10.6 284.1 10.7
2001-12-07 10:02:05 51°19.441 2°45.131 287.7 10.9 283.9 12.9
2001-12-07 10:03:05 51°19.485 2°44.852 288 10.8 284.1 19.7
2001-12-07 10:04:06 51°19.528 2°44.572 288.5 10.6 283.9 21.3
2001-12-07 10:05:06 51°19.57 2°44.298 287.7 10.7 283.9 21.9
2001-12-07 10:06:06 51°19.612 2°44.021 287.8 10.8 284 23
2001-12-07 10:07:06 51°19.656 2°43.742 288 10.8 284.4 24
2001-12-07 10:08:05 51°19.7 2°43.467 287.7 10.9 284.5 24.8
2001-12-07 10:09:05 51°19.745 2°43.188 287.5 10.8 284.5 25.2
2001-12-07 10:10:05 51°19.792 2°42.911 290 10.8 286.6 24.8
2001-12-07 10:11:06 51°19.842 2°42.635 290 10.5 285.8 24.4
2001-12-07 10:12:05 51°19.888 2°42.373 289.5 10.4 285.1 23.4
2001-12-07 10:13:06 51°19.923 2°42.151 287.8 7.4 283.4 21.6
2001-12-07 10:14:06 51°19.944 2°42.008 297.8 3 285.3 18.9
2001-12-07 10:15:06 51°19.954 2°41.977 347.7 3.2 326 20.7
2001-12-07 10:16:06 51°19.977 2°41.955 24.5 1 271.2 20.6
2001-12-07 10:17:06 51°19.982 2°41.931 36.7 1.7 358.7 20.2
2001-12-07 10:18:06 51°20.001 2°41.936 60 0.8 3 18.6
2001-12-07 10:19:06 51°20.008 2°41.924 68.5 0.6 310.2 18.2
2001-12-07 10:20:06 51°20.015 2°41.913 74.5 0.5 320.4 18.1
2001-12-07 10:21:05 51°20.023 2°41.907 79.7 0.4 340.3 18.3
2001-12-07 10:22:06 51°20.031 2°41.905 81.8 0.4 359.3 18.4
2001-12-07 10:23:06 51°20.037 2°41.907 84.2 0.4 19.8 18.4
2001-12-07 10:24:05 51°20.044 2°41.912 84.3 0.5 26.7 18.5
2001-12-07 10:25:05 51°20.051 2°41.923 91.3 0.9 66 18.5
2001-12-07 10:26:06 51°20.048 2°41.957 118.5 2 116.6 19.2
2001-12-07 10:27:06 51°20.012 2°42.007 138.3 3.4 142 20.2
2001-12-07 10:28:06 51°19.967 2°42.042 152.3 1.5 171.3 20.5
2001-12-07 10:29:05 51°19.956 2°42.031 161.8 0.8 214.2 20.1
2001-12-07 10:30:06 51°19.946 2°42.014 172.8 0.9 236 18.7
2001-12-07 10:31:05 51°19.939 2°41.993 184.5 0.9 249 20.8
2001-12-07 10:32:06 51°19.934 2°41.966 195.8 1 256.5 20.7
2001-12-07 10:33:05 51°19.925 2°41.934 206 2.3 225.8 20.3
2001-12-07 10:34:06 51°19.81 2°41.838 202.7 9.7 204.9 17.2
2001-12-07 10:35:05 51°19.652 2°41.73 198.3 10.7 201.4 20.1
2001-12-07 10:36:05 51°19.464 2°41.655 189.3 13.1 191.3 19.9
2001-12-07 10:37:06 51°19.241 2°41.581 189.7 13.6 192.5 19.2
2001-12-07 10:38:06 51°19.023 2°41.496 193.3 13.6 196.2 18
2001-12-07 10:39:05 51°18.807 2°41.396 193.7 13.9 196.3 16.2
2001-12-07 10:40:05 51°18.586 2°41.296 193.3 13.7 196.2 16.7
2001-12-07 10:41:06 51°18.363 2°41.196 193 13.8 195.6 19.3
2001-12-07 10:42:06 51°18.142 2°41.097 193.3 13.8 196.2 18.6
2001-12-07 10:43:05 51°17.924 2°41.001 193.2 13.8 195.4 18.8
2001-12-07 10:44:05 51°17.7 2°40.904 192 13.9 194.5 19.5
2001-12-07 10:45:06 51°17.474 2°40.808 193 13.8 195.9 20.1
2001-12-07 10:46:05 51°17.254 2°40.712 193.2 13.9 195.2 20.6
2001-12-07 10:47:06 51°17.027 2°40.617 193.3 13.7 194.9 21.2
2001-12-07 10:48:06 51°16.802 2°40.529 193 13.8 194 21.1
2001-12-07 10:49:06 51°16.578 2°40.439 192 13.9 193.3 20.6
2001-12-07 10:50:06 51°16.353 2°40.351 193 14.1 193.8 20
2001-12-07 10:51:04 51°16.136 2°40.268 192.7 13.9 193.6 19
2001-12-07 10:52:06 51°15.905 2°40.178 193.3 13.7 193.8 18.1
2001-12-07 10:53:05 51°15.71 2°40.102 189.5 9.1 193 17.4
2001-12-07 10:54:05 51°15.657 2°40.087 148.3 0.9 254.3 17
2001-12-07 10:55:07 51°15.654 2°40.064 135.2 0.8 257.2 -999
2001-12-07 10:56:07 51°15.648 2°40.055 108.3 0.2 190.1 -999
2001-12-07 10:57:06 51°15.649 2°40.059 73.3 0.4 37.9 17.2
2001-12-07 10:58:06 51°15.663 2°40.067 48.8 1.1 16.1 17.3
2001-12-07 10:59:06 51°15.687 2°40.074 41.3 1.6 9.9 17.4
2001-12-07 11:00:06 51°15.709 2°40.079 46.5 1.1 7 17.2
2001-12-07 11:01:06 51°15.724 2°40.077 54.8 0.8 351.4 17.5
2001-12-07 11:02:06 51°15.735 2°40.072 59.2 0.6 340.7 17.7
2001-12-07 11:03:06 51°15.744 2°40.065 62.7 0.6 329 17.8
2001-12-07 11:04:06 51°15.752 2°40.056 65.2 0.6 318 18
2001-12-07 11:05:06 51°15.758 2°40.044 67 0.6 305.8 18
2001-12-07 11:06:06 51°15.764 2°40.03 68.2 0.7 301.1 18
2001-12-07 11:07:06 51°15.781 2°40.046 55 3.4 46.1 17.7
2001-12-07 11:08:06 51°15.831 2°40.083 24 3.3 12.5 18.3
2001-12-07 11:09:05 51°15.886 2°40.075 356.7 3.5 344 18.6
2001-12-07 11:10:06 51°15.938 2°40.028 334 3.8 322.7 18.8
2001-12-07 11:11:06 51°15.986 2°39.96 326.5 4 316.1 19.1
2001-12-07 11:12:05 51°16.033 2°39.88 321.7 4.3 310.9 19.2
2001-12-07 11:13:06 51°16.079 2°39.786 315.8 4.4 305.8 19.1
2001-12-07 11:14:06 51°16.119 2°39.685 310.7 4.5 300.9 19
2001-12-07 11:15:06 51°16.157 2°39.581 311.2 4.5 301 18.7
2001-12-07 11:16:05 51°16.199 2°39.486 321.2 4.4 309 17.8
2001-12-07 11:17:06 51°16.251 2°39.404 333.7 4.3 319.8 17.5
2001-12-07 11:18:06 51°16.305 2°39.332 331.7 4.3 318.1 16.3
2001-12-07 11:19:06 51°16.355 2°39.249 324.3 4.4 311 14.7
2001-12-07 11:20:05 51°16.4 2°39.155 317.3 4.6 304.5 12.9
2001-12-07 11:21:05 51°16.441 2°39.05 313.7 4.7 301.9 11.2
2001-12-07 11:22:05 51°16.48 2°38.94 311.8 4.8 300.2 10.1
2001-12-07 11:23:06 51°16.523 2°38.831 315.8 4.8 302.9 9.1
2001-12-07 11:24:06 51°16.574 2°38.725 320.2 5.4 309.2 7.9
2001-12-07 11:25:05 51°16.635 2°38.609 320 6 310.2 7.6
2001-12-07 11:26:05 51°16.702 2°38.484 321 6.2 311.2 7.2
2001-12-07 11:27:05 51°16.771 2°38.357 317 6.4 309.5 10
2001-12-07 11:28:06 51°16.815 2°38.204 285 6.1 282.9 19.3
2001-12-07 11:29:06 51°16.809 2°38.048 261.8 6 261.3 22.8
2001-12-07 11:30:05 51°16.787 2°37.894 253.2 6.1 253.8 23.4
2001-12-07 11:31:04 51°16.75 2°37.749 246.3 6 245.9 24.5
2001-12-07 11:32:06 51°16.711 2°37.592 253.8 6.2 251.1 25
2001-12-07 11:33:05 51°16.682 2°37.436 256.5 6.3 253.8 24.8
2001-12-07 11:34:05 51°16.653 2°37.276 259.5 6.3 255.8 25.1
2001-12-07 11:35:06 51°16.633 2°37.117 261.5 5.4 258 24.8
2001-12-07 11:36:06 51°16.609 2°37.004 246.3 3.9 246.7 25.4
2001-12-07 11:37:06 51°16.582 2°36.922 237.8 3.2 241.5 25.4
2001-12-07 11:38:06 51°16.56 2°36.854 236 2.7 242.3 25.2
2001-12-07 11:39:06 51°16.54 2°36.795 235 2.4 243.4 25
2001-12-07 11:40:06 51°16.52 2°36.732 240.5 2.9 243.9 25.3
2001-12-07 11:41:06 51°16.506 2°36.651 276.3 3.4 263.9 25.5
2001-12-07 11:42:06 51°16.522 2°36.568 330.7 3.3 306.2 25.3
2001-12-07 11:43:06 51°16.568 2°36.556 46.5 2.8 28.5 25
2001-12-07 11:44:06 51°16.595 2°36.671 77.7 5.2 75.4 25.3
2001-12-07 11:45:05 51°16.608 2°36.774 84.3 2.9 84.5 25
2001-12-07 11:46:05 51°16.607 2°36.774 58.8 0.3 295 25
2001-12-07 11:47:06 51°16.611 2°36.765 50.2 0.5 314.6 25.1
2001-12-07 11:48:06 51°16.617 2°36.758 55.2 0.5 332.3 25.1
2001-12-07 11:49:06 51°16.624 2°36.757 61.7 0.4 13.1 25.1
2001-12-07 11:50:06 51°16.63 2°36.764 67 0.5 48.4 25.1
2001-12-07 11:51:06 51°16.637 2°36.778 64.5 0.8 50.3 25
2001-12-07 11:52:06 51°16.643 2°36.787 65.7 0.3 34.3 25.2
2001-12-07 11:53:05 51°16.646 2°36.787 68.5 0.2 326.4 25.2
2001-12-07 11:54:06 51°16.646 2°36.783 76 0.2 258.5 25.1
2001-12-07 11:55:06 51°16.644 2°36.774 81.3 0.4 245.2 25.1
2001-12-07 11:56:05 51°16.62 2°36.809 144 4.6 150.5 25
2001-12-07 11:57:06 51°16.482 2°36.75 200.3 12.1 201.7 25.4
2001-12-07 11:58:05 51°16.295 2°36.554 214.2 14.3 214.3 25.9
2001-12-07 11:59:06 51°16.111 2°36.297 224.8 14.5 223.9 25.4
2001-12-07 12:00:06 51°15.933 2°36.037 222.5 14.5 221.8 25.7
2001-12-07 12:01:06 51°15.752 2°35.78 223.3 14.5 222.1 25.3
2001-12-07 12:02:06 51°15.572 2°35.522 222.7 14.5 221.5 24.9
2001-12-07 12:03:06 51°15.391 2°35.263 222.8 14.6 221.8 24.4
2001-12-07 12:04:06 51°15.21 2°35.005 223.3 14.6 222.2 24.5
2001-12-07 12:05:06 51°15.031 2°34.747 222.5 14.5 221.5 25.1
2001-12-07 12:06:06 51°14.853 2°34.487 222.8 14.5 221.6 24.4
2001-12-07 12:07:06 51°14.675 2°34.224 225.2 14.6 224 24.1
2001-12-07 12:08:06 51°14.499 2°33.954 225 14.6 224 23.8
2001-12-07 12:09:06 51°14.323 2°33.686 224.5 14.5 223.2 23.6
2001-12-07 12:10:06 51°14.146 2°33.416 224.3 14.6 223.2 22.8
2001-12-07 12:11:06 51°13.969 2°33.146 224.7 14.7 223.7 23
2001-12-07 12:12:06 51°13.791 2°32.876 225.2 14.8 223.7 23.8
2001-12-07 12:13:06 51°13.613 2°32.605 225.3 14.8 223.4 23.3
2001-12-07 12:14:06 51°13.435 2°32.334 225 14.8 224.1 23.5
2001-12-07 12:15:06 51°13.257 2°32.063 225 14.9 223.3 23
2001-12-07 12:16:06 51°13.08 2°31.79 224.3 14.7 224.1 22.9
2001-12-07 12:17:06 51°12.903 2°31.517 224.8 14.8 224.2 22.5
2001-12-07 12:18:06 51°12.726 2°31.244 225.2 14.7 224.2 22.3
2001-12-07 12:19:06 51°12.549 2°30.972 224.5 14.7 224.1 21.4
2001-12-07 12:20:06 51°12.372 2°30.698 225 14.7 224.6 21
2001-12-07 12:21:06 51°12.194 2°30.424 224.8 14.9 224 20.4
2001-12-07 12:22:06 51°12.017 2°30.149 225.3 14.9 224.8 20.6
2001-12-07 12:23:06 51°11.84 2°29.873 225.2 14.9 224.8 21
2001-12-07 12:24:06 51°11.664 2°29.594 224.5 14.9 224.5 21.6
2001-12-07 12:25:05 51°11.498 2°29.312 225.8 14.8 226.3 22.1
2001-12-07 12:26:06 51°11.321 2°29.027 225.8 14.8 225.9 20.3
2001-12-07 12:27:06 51°11.149 2°28.746 226 14.8 225.7 19.5
2001-12-07 12:28:06 51°11.004 2°28.506 231.7 9.3 230.6 16.9
2001-12-07 12:29:07 51°10.967 2°28.391 283.5 1.7 250.3 17.6
2001-12-07 12:30:06 51°11.023 2°28.347 30 6.2 15.7 19.6
2001-12-07 12:31:05 51°11.038 2°28.533 105.7 7.9 106.3 18.1
2001-12-07 12:32:06 51°11.011 2°28.603 75 0.4 161.2 16.2
2001-12-07 12:33:05 51°11.015 2°28.605 51.7 1.1 37.6 16
2001-12-07 12:34:06 51°11.024 2°28.622 62.5 0.8 53.4 14.9
2001-12-07 12:35:05 51°11.031 2°28.645 69 1 71 15.4
2001-12-07 12:36:05 51°11.034 2°28.672 71.7 1 75 16.5
2001-12-07 12:37:06 51°11.04 2°28.698 67.8 1.1 67.6 17.1
2001-12-07 12:38:06 51°11.048 2°28.725 68.8 1.1 66.7 17
2001-12-07 12:39:06 51°11.053 2°28.757 75.3 1.3 75.7 16.1
2001-12-07 12:40:06 51°11.053 2°28.793 83.5 1.3 93.3 15.7
2001-12-07 12:41:06 51°11.053 2°28.829 78.7 1.4 90.1 15
2001-12-07 12:42:05 51°11.056 2°28.864 71.8 1.3 78.2 14.6
2001-12-07 12:43:04 51°11.063 2°28.892 54.8 1.1 54.1 15.7
2001-12-07 12:44:05 51°11.079 2°28.909 36 1.2 19.9 16.3
2001-12-07 12:45:04 51°11.099 2°28.914 31.3 1.3 9.2 16.4
2001-12-07 12:46:06 51°11.119 2°28.923 43.5 1 23.5 16.3
2001-12-07 12:47:04 51°11.128 2°28.935 56 0.6 44.8 15.4
2001-12-07 12:48:04 51°11.131 2°28.944 65 0.3 70.7 15.2
2001-12-07 12:49:06 51°11.131 2°28.95 69.5 0.1 112.4 15.6
2001-12-07 12:50:06 51°11.129 2°28.951 72.2 0.2 179.5 15.3
2001-12-07 12:51:05 51°11.125 2°28.95 76.3 0.3 209.7 14.6
2001-12-07 12:52:05 51°11.121 2°28.945 78.8 0.3 206.7 15.3
2001-12-07 12:53:05 51°11.119 2°28.957 80.3 2.2 84.4 14.4
2001-12-07 12:54:06 51°11.18 2°29.148 58.3 11.2 55.5 15
2001-12-07 12:55:05 51°11.287 2°29.417 62.7 12.5 61.4 15.7
2001-12-07 12:56:05 51°11.389 2°29.704 62.5 12.5 60.7 17.6
2001-12-07 12:57:06 51°11.491 2°30 63 12.5 60.8 17
2001-12-07 12:58:06 51°11.591 2°30.289 63.7 12.4 62.3 18.8
2001-12-07 12:59:06 51°11.688 2°30.578 63.8 12.3 62.2 19.3
2001-12-07 13:00:06 51°11.787 2°30.867 63 12.4 62.5 19
2001-12-07 13:01:06 51°11.885 2°31.157 62.7 12.5 61.7 18.6
2001-12-07 13:02:06 51°11.985 2°31.448 61.8 12.5 61.1 17.9
2001-12-07 13:03:05 51°12.081 2°31.733 62.8 12.4 60.7 17
2001-12-07 13:04:05 51°12.18 2°32.024 63.3 12.5 61 16.4
2001-12-07 13:05:05 51°12.279 2°32.317 63.7 12.6 62.8 15.6
2001-12-07 13:06:05 51°12.38 2°32.61 63.2 12.7 62.4 15
2001-12-07 13:07:06 51°12.473 2°32.914 66.7 12.5 66.2 14.3
2001-12-07 13:08:06 51°12.562 2°33.214 65.8 12.6 65.1 14.4
2001-12-07 13:09:06 51°12.654 2°33.514 65 12.6 63.3 14.5
2001-12-07 13:10:06 51°12.745 2°33.816 66.7 12.6 63.9 15.9
2001-12-07 13:11:05 51°12.834 2°34.11 66.3 12.5 64.6 16.4
2001-12-07 13:12:06 51°12.926 2°34.414 69 12.6 67.6 16.6
2001-12-07 13:13:05 51°13 2°34.72 70.3 12.6 69.6 16.8
2001-12-07 13:14:06 51°13.078 2°35.036 70 12.6 68.1 16.1
2001-12-07 13:15:06 51°13.157 2°35.345 70 12.5 67.1 16.2
2001-12-07 13:16:06 51°13.236 2°35.654 70.2 12.6 67.8 15.9
2001-12-07 13:17:06 51°13.318 2°35.962 69.2 12.7 67 15.7
2001-12-07 13:18:05 51°13.412 2°36.254 63.3 12.6 61 15.6
2001-12-07 13:19:06 51°13.496 2°36.563 73.8 12.4 70.3 16.3
2001-12-07 13:20:06 51°13.551 2°36.884 80 12.6 78.2 15.3
2001-12-07 13:21:05 51°13.523 2°37.201 116.5 12.5 117.9 7.7
2001-12-07 13:22:05 51°13.406 2°37.475 123.8 12.9 125.2 8.3
2001-12-07 13:23:06 51°13.265 2°37.758 131.3 13.8 132 10.8
2001-12-07 13:24:06 51°13.05 2°37.805 194 13.8 194.7 12
2001-12-07 13:25:06 51°12.829 2°37.668 204.7 14.3 203.8 11.6
2001-12-07 13:26:06 51°12.602 2°37.562 187.8 14.1 187.7 11.2
2001-12-07 13:27:06 51°12.373 2°37.459 200.8 14.3 200 10.8
2001-12-07 13:28:06 51°12.159 2°37.29 208.2 14.5 205.9 10.3
2001-12-07 13:29:06 51°11.933 2°37.178 196.8 14.3 195.5 11.1
2001-12-07 13:30:06 51°11.705 2°37.063 198.7 14.3 197.1 11.8
2001-12-07 13:31:06 51°11.476 2°36.95 197.3 14.4 196.1 12.2
2001-12-07 13:32:06 51°11.245 2°36.853 194.3 14.4 192.8 12.2
2001-12-07 13:33:06 51°11.014 2°36.763 194.8 14.2 193.6 11.8
2001-12-07 13:34:06 51°10.782 2°36.69 193.2 14.3 191.4 10
2001-12-07 13:35:05 51°10.558 2°36.618 193 13.9 191 8.5
2001-12-07 13:36:06 51°10.328 2°36.544 192.2 14.2 191.4 12.7
2001-12-07 13:37:06 51°10.098 2°36.467 193 14 192.9 17.6
2001-12-07 13:38:06 51°9.873 2°36.385 192.3 13.9 192.3 17.4
2001-12-07 13:39:06 51°9.647 2°36.302 192 14 192.6 16.9
2001-12-07 13:40:06 51°9.435 2°36.231 186.3 11.1 188.7 15.9
2001-12-07 13:41:06 51°9.329 2°36.258 152.3 4.7 158.8 15.6
2001-12-07 13:42:06 51°9.307 2°36.271 104.5 0.6 160.4 15.7
2001-12-07 13:43:06 51°9.303 2°36.273 87.7 0.1 176.5 15.7
2001-12-07 13:44:06 51°9.303 2°36.272 80.8 0.1 298.1 15.7
2001-12-07 13:45:06 51°9.305 2°36.267 76.8 0.2 302.1 15.8
2001-12-07 13:46:06 51°9.306 2°36.262 71.5 0.3 302.6 15.8
2001-12-07 13:47:06 51°9.309 2°36.255 67.5 0.3 301.1 15.7
2001-12-07 13:48:07 51°9.313 2°36.249 63.5 0.3 306.9 15.8
2001-12-07 13:49:06 51°9.316 2°36.242 60.8 0.3 303 15.8
2001-12-07 13:50:05 51°9.32 2°36.234 56.7 0.4 307.6 15.7
2001-12-07 13:51:06 51°9.324 2°36.227 52.8 0.3 309.7 15.8
2001-12-07 13:52:05 51°9.328 2°36.22 50.5 0.4 313 15.8
2001-12-07 13:53:06 51°9.332 2°36.213 49.5 0.4 314.5 15.9
2001-12-07 13:54:06 51°9.337 2°36.207 46.7 0.4 318.6 16
2001-12-07 13:55:05 51°9.342 2°36.201 44.7 0.4 327.2 16
2001-12-07 13:56:06 51°9.36 2°36.212 43.8 1.7 27.6 16.1
2001-12-07 13:57:05 51°9.39 2°36.242 44.5 2.5 34.6 16
2001-12-07 13:58:05 51°9.423 2°36.278 46 2.3 34.6 16.5
2001-12-07 13:59:05 51°9.451 2°36.309 48.8 1.9 35.9 16.6
2001-12-07 14:00:05 51°9.474 2°36.336 51.2 1.6 36 16.3
2001-12-07 14:01:06 51°9.494 2°36.36 52.8 1.4 36.3 16.4
2001-12-07 14:02:06 51°9.512 2°36.381 53.5 1.3 34.9 16.8
2001-12-07 14:03:06 51°9.529 2°36.4 55.7 1.3 36.8 16.6
2001-12-07 14:04:06 51°9.545 2°36.42 57 1.2 37.8 16.8
2001-12-07 14:05:05 51°9.56 2°36.44 58.7 1.2 40.1 16.2
2001-12-07 14:06:06 51°9.576 2°36.462 60.7 1.2 42.6 16.6
2001-12-07 14:07:05 51°9.599 2°36.51 64.5 5.2 58.9 16.6
2001-12-07 14:08:05 51°9.669 2°36.768 73.8 12.6 71.2 16.3
2001-12-07 14:09:06 51°9.738 2°37.1 74.2 13.1 71.2 16.7
2001-12-07 14:10:05 51°9.807 2°37.422 73.5 13.1 71 16.7
2001-12-07 14:11:05 51°9.88 2°37.753 73.5 13.3 70.6 16.6
2001-12-07 14:12:04 51°9.951 2°38.08 73.5 13.3 70 16.4
2001-12-07 14:13:06 51°10.025 2°38.424 73.8 13.3 71.3 15.9
2001-12-07 14:14:07 51°10.098 2°38.76 74 13.2 70.5 15.4
2001-12-07 14:15:06 51°10.17 2°39.087 74.2 13.4 70.5 15
2001-12-07 14:16:07 51°10.245 2°39.428 73.8 13.4 71.6 14.6
2001-12-07 14:17:07 51°10.318 2°39.764 73.7 13.4 70.8 13.8
2001-12-07 14:18:06 51°10.388 2°40.095 74 13.4 70.4 13.5
2001-12-07 14:19:07 51°10.462 2°40.437 74.5 13.5 71.1 13.1
2001-12-07 14:20:06 51°10.534 2°40.768 74.3 13.4 71.8 12.9
2001-12-07 14:21:07 51°10.611 2°41.11 73.3 13.4 70.9 12.8
2001-12-07 14:22:06 51°10.682 2°41.44 73.5 13.4 70.3 12.9
2001-12-07 14:23:06 51°10.755 2°41.779 74.8 13.6 71.6 12.9
2001-12-07 14:24:07 51°10.832 2°42.13 73.3 13.8 70.4 12.8
2001-12-07 14:25:06 51°10.906 2°42.466 73.2 13.6 70.1 12.8
2001-12-07 14:26:07 51°10.981 2°42.807 73.2 13.4 69.6 12.8
2001-12-07 14:27:06 51°11.053 2°43.136 74 13.4 71 12.8
2001-12-07 14:28:07 51°11.128 2°43.479 73.8 13.5 71.3 12.8
2001-12-07 14:29:07 51°11.203 2°43.813 73 13.4 69.9 12.9
2001-12-07 14:30:06 51°11.274 2°44.144 74.5 13.4 71.5 13
2001-12-07 14:31:06 51°11.348 2°44.482 73.8 13.5 71 13
2001-12-07 14:32:06 51°11.422 2°44.818 73.7 13.4 69.5 13
2001-12-07 14:33:07 51°11.498 2°45.159 73.8 13.4 71.4 13.1
2001-12-07 14:34:06 51°11.57 2°45.489 73.8 13.4 70.2 13.1
2001-12-07 14:35:07 51°11.649 2°45.829 70.2 13.4 66.8 13.2
2001-12-07 14:36:07 51°11.737 2°46.158 70.8 13.6 67.8 13.2
2001-12-07 14:37:06 51°11.822 2°46.483 70.8 13.6 68.1 13.3
2001-12-07 14:38:07 51°11.915 2°46.818 67.8 13.6 64.5 13.2
2001-12-07 14:39:07 51°12.009 2°47.144 69.2 13.5 64.6 13.2
2001-12-07 14:40:06 51°12.102 2°47.465 69.2 13.6 66.1 13.1
2001-12-07 14:41:06 51°12.205 2°47.787 64 13.7 61 13
2001-12-07 14:42:07 51°12.314 2°48.116 66 13.8 62.7 12.9
2001-12-07 14:43:07 51°12.419 2°48.44 66.7 13.7 63.4 12.7
2001-12-07 14:44:06 51°12.523 2°48.755 65.7 13.6 63.2 12.6
2001-12-07 14:45:06 51°12.629 2°49.074 65.5 13.6 62.4 12.6
2001-12-07 14:46:06 51°12.733 2°49.395 65.8 13.6 61.4 12.3
2001-12-07 14:47:06 51°12.838 2°49.713 67 13.5 63.2 12.3
2001-12-07 14:48:06 51°12.942 2°50.032 66 13.6 63 12.1
2001-12-07 14:49:06 51°13.047 2°50.352 65.3 13.7 62.1 11.9
2001-12-07 14:50:06 51°13.153 2°50.675 65 13.7 61.9 11.8
2001-12-07 14:51:06 51°13.259 2°50.998 65.8 13.7 62 11.8
2001-12-07 14:52:06 51°13.363 2°51.321 67.2 13.6 64.1 11.5
2001-12-07 14:53:07 51°13.47 2°51.648 66 13.8 63.5 11.5
2001-12-07 14:54:07 51°13.577 2°51.972 64.8 13.8 61.9 11.3
2001-12-07 14:55:06 51°13.681 2°52.291 66 13.8 61.6 11.3
2001-12-07 14:56:06 51°13.785 2°52.616 66.5 13.7 63.6 11.1
2001-12-07 14:57:07 51°13.892 2°52.945 65.2 13.8 62.5 10.9
2001-12-07 14:58:07 51°13.997 2°53.271 66.3 13.8 62.2 10.5
2001-12-07 14:59:06 51°14.101 2°53.591 66.8 13.9 63.4 10.2
2001-12-07 15:00:07 51°14.21 2°53.924 65.5 13.9 62.3 10
2001-12-07 15:01:06 51°14.301 2°54.256 74.7 13.9 71.2 10.1
2001-12-07 15:02:06 51°14.355 2°54.614 84.2 13.9 80.5 10.3
2001-12-07 15:03:06 51°14.363 2°54.981 104 13.8 98.6 10.5
2001-12-07 15:04:06 51°14.268 2°55.247 133.7 10 131.8 11.1
2001-12-07 15:05:06 51°14.156 2°55.389 153 7.9 150.3 10.8
2001-12-07 15:06:05 51°14.051 2°55.469 157.7 6.4 155.5 11
2001-12-07 15:07:06 51°13.958 2°55.538 158 6.8 155.1 10.9
2001-12-07 15:08:06 51°13.844 2°55.621 157 7.8 154.7 10.9
2001-12-07 15:09:06 51°13.758 2°55.707 138.7 4.9 138.1 11
2001-12-07 15:10:05 51°13.719 2°55.785 124.7 3.3 123.1 11.8
2001-12-07 15:11:06 51°13.698 2°55.851 114.2 2.5 111.8 10.3